Time;durP1;ratioP1;P1;durP2;ratioP2;P2;SDS_P1;SDS_P2;PMS_P1;PMS_P2;Temp;Humidity;BMP_temperature;BMP_pressure;BME280_temperature;BME280_humidity;BME280_pressure;Samples;Min_cycle;Max_cycle;Signal;HPM_P1;HPM_P2
2021/04/10 00:01:26;;;;;;;4.63;3.07;;;4.60;98.30;;;;;;4995760;28;20514;-76
2021/04/10 00:03:52;;;;;;;5.53;3.60;;;4.60;99.10;;;;;;4996084;28;20203;-76
2021/04/10 00:06:17;;;;;;;9.87;2.93;;;4.50;99.90;;;;;;4995972;28;20422;-76
2021/04/10 00:08:43;;;;;;;4.70;2.97;;;4.40;99.90;;;;;;5027607;28;20183;-76
2021/04/10 00:11:09;;;;;;;4.73;3.30;;;4.40;99.90;;;;;;4996093;28;20275;-76
2021/04/10 00:13:34;;;;;;;3.80;2.47;;;4.40;99.90;;;;;;4996271;28;20175;-76
2021/04/10 00:16:00;;;;;;;5.17;3.00;;;4.40;99.90;;;;;;4995799;28;20183;-76
2021/04/10 00:18:26;;;;;;;4.93;3.33;;;4.40;99.90;;;;;;4995880;28;20196;-75
2021/04/10 00:20:51;;;;;;;5.77;3.70;;;4.30;99.90;;;;;;4995982;28;20533;-76
2021/04/10 00:23:17;;;;;;;5.10;3.10;;;4.30;99.90;;;;;;4994442;28;20199;-75
2021/04/10 00:25:43;;;;;;;8.57;2.93;;;4.30;99.90;;;;;;4994407;28;20310;-76
2021/04/10 00:28:09;;;;;;;6.07;3.23;;;4.20;99.90;;;;;;4994526;28;20352;-76
2021/04/10 00:30:34;;;;;;;4.30;2.90;;;4.20;99.90;;;;;;4995814;28;20206;-76
2021/04/10 00:33:00;;;;;;;8.03;2.40;;;4.10;99.90;;;;;;4994526;28;20641;-76
2021/04/10 00:35:28;;;;;;;4.10;2.67;;;4.10;99.90;;;;;;4995773;28;20535;-76
2021/04/10 00:37:55;;;;;;;5.93;3.33;;;4.10;99.90;;;;;;4995662;28;20670;-76
2021/04/10 00:40:21;;;;;;;5.03;3.30;;;4.10;99.90;;;;;;4995630;28;20892;-76
2021/04/10 00:42:46;;;;;;;5.77;3.27;;;4.10;99.90;;;;;;4995725;28;20477;-76
2021/04/10 00:45:12;;;;;;;3.77;2.83;;;4.10;99.90;;;;;;4995525;28;20203;-76
2021/04/10 00:47:38;;;;;;;4.73;3.27;;;4.10;99.90;;;;;;4994348;28;20622;-76
2021/04/10 00:50:05;;;;;;;4.30;2.50;;;4.10;99.90;;;;;;4994227;28;20181;-76
2021/04/10 00:52:30;;;;;;;4.63;2.67;;;4.10;99.90;;;;;;4996984;28;20209;-76
2021/04/10 00:54:56;;;;;;;5.83;2.80;;;4.30;99.90;;;;;;4995402;28;20815;-76
2021/04/10 00:57:23;;;;;;;4.73;2.70;;;4.20;99.90;;;;;;4995314;28;20215;-76
2021/04/10 00:59:49;;;;;;;7.00;3.00;;;4.30;99.90;;;;;;5002548;28;20421;-76
2021/04/10 01:02:14;;;;;;;5.37;2.70;;;4.30;99.90;;;;;;4996075;28;20410;-76
2021/04/10 01:04:41;;;;;;;4.60;2.27;;;4.30;99.90;;;;;;4995229;28;20172;-76
2021/04/10 01:07:07;;;;;;;6.17;2.67;;;4.30;99.90;;;;;;4995071;28;20198;-76
2021/04/10 01:09:33;;;;;;;6.50;2.93;;;4.40;99.90;;;;;;4993814;28;20411;-76
2021/04/10 01:12:09;;;;;;;5.37;2.73;;;4.40;99.90;;;;;;4994102;28;20164;-76
2021/04/10 01:14:58;;;;;;;6.57;2.70;;;4.40;99.90;;;;;;5026497;28;20210;-76
2021/04/10 01:17:31;;;;;;;4.73;3.00;;;4.30;99.90;;;;;;4995117;28;20438;-76
2021/04/10 01:20:08;;;;;;;3.23;2.50;;;4.30;99.90;;;;;;4994967;28;20537;-76
2021/04/10 01:22:53;;;;;;;3.30;2.50;;;4.20;99.90;;;;;;4993618;28;20450;-76
2021/04/10 01:25:37;;;;;;;4.40;2.87;;;4.10;99.90;;;;;;4993489;28;20271;-76
2021/04/10 01:28:12;;;;;;;4.70;2.17;;;4.10;99.90;;;;;;4994871;28;20437;-76
2021/04/10 01:30:38;;;;;;;5.27;3.20;;;4.10;99.90;;;;;;4994752;28;20618;-76
2021/04/10 01:33:10;;;;;;;3.67;2.37;;;4.10;99.90;;;;;;5026201;28;20423;-75
2021/04/10 01:35:39;;;;;;;3.00;2.10;;;4.10;99.90;;;;;;4994583;28;20168;-76
2021/04/10 01:38:08;;;;;;;4.70;2.30;;;4.10;99.90;;;;;;4994509;28;20427;-76
2021/04/10 01:40:35;;;;;;;4.33;3.00;;;4.10;99.90;;;;;;4993245;28;20785;-76
2021/04/10 01:43:04;;;;;;;4.43;2.50;;;4.10;99.90;;;;;;5025903;28;20550;-75
2021/04/10 01:45:31;;;;;;;5.47;2.87;;;4.10;99.90;;;;;;4994823;28;20821;-76
2021/04/10 01:48:05;;;;;;;6.77;2.63;;;4.20;99.90;;;;;;4994300;28;20513;-76
2021/04/10 01:50:32;;;;;;;4.70;2.47;;;4.20;99.90;;;;;;4994344;28;20444;-76
2021/04/10 01:52:59;;;;;;;4.27;2.57;;;4.20;99.90;;;;;;4994255;28;20921;-76
2021/04/10 01:55:26;;;;;;;3.90;2.60;;;4.30;99.90;;;;;;4994209;28;20414;-76
2021/04/10 01:57:52;;;;;;;5.53;2.40;;;4.30;99.90;;;;;;4995359;28;20898;-76
2021/04/10 02:00:20;;;;;;;4.30;2.23;;;4.40;99.90;;;;;;4996908;28;20450;-76
2021/04/10 02:02:46;;;;;;;2.57;1.80;;;4.40;99.90;;;;;;4996764;28;20199;-76
2021/04/10 02:05:15;;;;;;;3.50;2.20;;;4.50;99.90;;;;;;4998426;28;20410;-76
2021/04/10 02:07:43;;;;;;;4.07;2.13;;;4.50;99.90;;;;;;4996048;28;20438;-76
2021/04/10 02:10:13;;;;;;;4.30;2.33;;;4.60;99.90;;;;;;4994052;28;20407;-76
2021/04/10 02:12:41;;;;;;;2.70;2.10;;;4.60;99.90;;;;;;4994284;28;20410;-76
2021/04/10 02:15:07;;;;;;;2.57;2.20;;;4.60;99.90;;;;;;4993864;28;20805;-76
2021/04/10 02:17:33;;;;;;;4.87;2.57;;;4.50;99.90;;;;;;4994035;28;20955;-76
2021/04/10 02:19:59;;;;;;;2.27;1.93;;;4.50;99.90;;;;;;4992726;28;20184;-76
2021/04/10 02:22:32;;;;;;;4.03;2.13;;;4.40;99.90;;;;;;4993918;28;20254;-76
2021/04/10 02:24:58;;;;;;;3.10;1.90;;;4.40;99.90;;;;;;4992322;28;20179;-76
2021/04/10 02:27:23;;;;;;;4.53;2.53;;;4.40;99.90;;;;;;4993838;28;20430;-76
2021/04/10 02:29:49;;;;;;;5.33;2.17;;;4.40;99.90;;;;;;4994164;28;20178;-76
2021/04/10 02:32:24;;;;;;;3.90;2.60;;;4.40;99.90;;;;;;4993873;28;20175;-76
2021/04/10 02:34:59;;;;;;;3.57;2.23;;;4.50;99.90;;;;;;4993802;28;20682;-76
2021/04/10 02:37:26;;;;;;;3.67;2.77;;;4.50;99.90;;;;;;4992434;28;20430;-75
2021/04/10 02:39:52;;;;;;;9.63;5.00;;;4.50;99.90;;;;;;4993745;28;20465;-76
2021/04/10 02:42:20;;;;;;;7.20;4.23;;;4.60;99.90;;;;;;4993731;28;20407;-76
2021/04/10 02:44:51;;;;;;;7.20;4.37;;;4.70;99.90;;;;;;4993593;28;20630;-76
2021/04/10 02:47:20;;;;;;;5.27;3.17;;;4.70;99.90;;;;;;4993768;28;20430;-76
2021/04/10 02:49:51;;;;;;;5.53;3.37;;;4.80;99.90;;;;;;4993728;28;20194;-76
2021/04/10 02:52:23;;;;;;;7.47;4.30;;;4.80;99.90;;;;;;4993958;28;20383;-76
2021/04/10 02:54:50;;;;;;;8.07;5.63;;;4.70;99.90;;;;;;4993736;28;20900;-76
2021/04/10 02:57:21;;;;;;;9.53;5.33;;;4.60;99.90;;;;;;5024942;28;20215;-76
2021/04/10 02:59:49;;;;;;;14.10;7.00;;;4.40;99.90;;;;;;4993668;28;20411;-76
2021/04/10 03:02:16;;;;;;;10.87;5.73;;;4.30;99.90;;;;;;5025061;28;20172;-76
2021/04/10 03:04:44;;;;;;;10.87;7.97;;;4.40;99.90;;;;;;4992344;28;20513;-76
2021/04/10 03:07:11;;;;;;;7.47;5.53;;;4.30;99.90;;;;;;4993779;28;20434;-76
2021/04/10 03:09:39;;;;;;;7.63;6.37;;;4.40;99.90;;;;;;4993561;28;20542;-76
2021/04/10 03:12:05;;;;;;;6.17;4.43;;;4.50;99.90;;;;;;4993522;28;20175;-76
2021/04/10 03:14:31;;;;;;;11.27;4.40;;;4.50;99.90;;;;;;4993383;28;20175;-76
2021/04/10 03:16:58;;;;;;;4.23;2.57;;;4.60;99.90;;;;;;4993370;28;20662;-76
2021/04/10 03:19:24;;;;;;;5.00;4.17;;;4.70;99.90;;;;;;4993813;28;20203;-76
2021/04/10 03:21:50;;;;;;;6.30;3.23;;;4.80;99.90;;;;;;4993659;28;20992;-76
2021/04/10 03:24:16;;;;;;;4.07;2.87;;;4.80;99.90;;;;;;4993394;28;20450;-76
2021/04/10 03:26:43;;;;;;;7.37;2.93;;;4.90;99.90;;;;;;4993401;28;20192;-76
2021/04/10 03:29:10;;;;;;;8.27;2.63;;;4.90;99.90;;;;;;4993593;28;20410;-76
2021/04/10 03:31:37;;;;;;;2.90;1.90;;;5.00;99.90;;;;;;4993372;28;20407;-76
2021/04/10 03:34:04;;;;;;;3.00;2.03;;;5.00;99.90;;;;;;4993415;28;20418;-76
2021/04/10 03:36:32;;;;;;;2.93;1.87;;;5.00;99.90;;;;;;4996006;28;20266;-76
2021/04/10 03:38:57;;;;;;;5.13;2.43;;;5.10;99.90;;;;;;4996809;28;20172;-76
2021/04/10 03:41:23;;;;;;;3.33;1.93;;;5.10;99.90;;;;;;4996721;28;20411;-76
2021/04/10 03:43:49;;;;;;;3.67;2.10;;;5.20;99.90;;;;;;4996615;28;20558;-76
2021/04/10 03:46:15;;;;;;;8.00;2.57;;;5.30;99.90;;;;;;4996519;28;20250;-76
2021/04/10 03:48:41;;;;;;;5.90;1.93;;;5.30;99.90;;;;;;5027999;28;20558;-76
2021/04/10 03:51:06;;;;;;;3.23;2.20;;;5.30;99.60;;;;;;4995306;28;20183;-76
2021/04/10 03:53:32;;;;;;;3.40;1.77;;;5.40;99.80;;;;;;4995266;28;20183;-76
2021/04/10 03:55:58;;;;;;;4.60;2.30;;;5.40;99.50;;;;;;4996390;28;20259;-76
2021/04/10 03:58:23;;;;;;;5.90;3.23;;;5.40;99.30;;;;;;4996462;28;20240;-76
2021/04/10 04:00:49;;;;;;;2.87;1.93;;;5.40;99.30;;;;;;4995081;28;20650;-76
2021/04/10 04:03:15;;;;;;;2.77;1.73;;;5.40;99.30;;;;;;4995032;28;20203;-76
2021/04/10 04:05:40;;;;;;;4.53;1.90;;;5.50;99.40;;;;;;4996509;28;20254;-76
2021/04/10 04:08:06;;;;;;;5.93;2.10;;;5.50;99.40;;;;;;4996465;28;20552;-76
2021/04/10 04:10:32;;;;;;;2.70;2.03;;;5.50;99.30;;;;;;4996179;28;20179;-76
2021/04/10 04:12:58;;;;;;;3.53;1.87;;;5.50;99.20;;;;;;4997078;28;20298;-76
2021/04/10 04:15:24;;;;;;;2.93;2.47;;;5.50;99.40;;;;;;4995940;28;20176;-76
2021/04/10 04:17:50;;;;;;;3.43;2.37;;;5.50;99.50;;;;;;4996019;28;20212;-76
2021/04/10 04:20:16;;;;;;;4.00;1.83;;;5.40;99.50;;;;;;4996273;28;20180;-76
2021/04/10 04:22:42;;;;;;;2.67;1.67;;;5.40;99.60;;;;;;4994802;28;20210;-76
2021/04/10 04:25:08;;;;;;;3.27;2.17;;;5.40;99.70;;;;;;4995917;28;20269;-76
2021/04/10 04:27:35;;;;;;;7.33;2.13;;;5.50;99.50;;;;;;4995859;28;20273;-76
2021/04/10 04:30:06;;;;;;;4.50;2.43;;;5.50;99.50;;;;;;4995900;28;20171;-76
2021/04/10 04:32:32;;;;;;;6.73;1.90;;;5.50;99.60;;;;;;4994561;28;20725;-76
2021/04/10 04:34:57;;;;;;;4.20;2.40;;;5.50;99.40;;;;;;4994322;28;20514;-76
2021/04/10 04:37:23;;;;;;;4.07;2.37;;;5.40;99.60;;;;;;4995688;28;20278;-76
2021/04/10 04:39:49;;;;;;;3.57;1.80;;;5.50;99.50;;;;;;4996333;28;20234;-76
2021/04/10 04:42:14;;;;;;;4.33;2.27;;;5.50;99.50;;;;;;4995611;28;20174;-76
2021/04/10 04:44:40;;;;;;;4.90;2.40;;;5.50;99.70;;;;;;4995602;28;20192;-76
2021/04/10 04:47:06;;;;;;;6.47;2.50;;;5.40;99.80;;;;;;4995686;28;20548;-76
2021/04/10 04:49:32;;;;;;;3.40;2.20;;;5.40;99.80;;;;;;4994263;28;20176;-76
2021/04/10 04:51:58;;;;;;;2.87;1.87;;;5.40;99.90;;;;;;4996067;28;20633;-76
2021/04/10 04:54:23;;;;;;;3.30;1.80;;;5.30;99.90;;;;;;4995581;28;20573;-76
2021/04/10 04:56:49;;;;;;;3.00;2.50;;;5.30;99.90;;;;;;4995301;28;20265;-76
2021/04/10 04:59:15;;;;;;;2.63;2.00;;;5.30;99.90;;;;;;4995516;28;20184;-76
2021/04/10 05:01:41;;;;;;;3.83;2.40;;;5.20;99.90;;;;;;4995366;28;20190;-76
2021/04/10 05:04:07;;;;;;;4.00;2.00;;;5.30;99.90;;;;;;4995405;28;20211;-76
2021/04/10 05:06:32;;;;;;;4.37;2.43;;;5.30;99.90;;;;;;4993989;28;20176;-76
2021/04/10 05:08:58;;;;;;;4.57;2.40;;;5.30;99.90;;;;;;4995216;28;20188;-76
2021/04/10 05:11:24;;;;;;;3.17;2.60;;;5.30;99.90;;;;;;4996784;28;20242;-76
2021/04/10 05:13:51;;;;;;;7.33;3.10;;;5.30;99.90;;;;;;4997258;28;20179;-76
2021/04/10 05:16:17;;;;;;;8.97;4.17;;;5.30;99.90;;;;;;4996557;28;20246;-77
2021/04/10 05:18:42;;;;;;;7.57;3.93;;;5.30;99.90;;;;;;4996699;28;20645;-76
2021/04/10 05:21:08;;;;;;;8.07;3.57;;;5.30;99.90;;;;;;4995870;28;20203;-76
2021/04/10 05:23:34;;;;;;;8.23;3.50;;;5.30;99.90;;;;;;4995167;28;20657;-77
2021/04/10 05:26:00;;;;;;;4.87;2.87;;;5.30;99.90;;;;;;4993998;28;20171;-76
2021/04/10 05:28:25;;;;;;;4.00;2.57;;;5.30;99.90;;;;;;4993788;28;20199;-76
2021/04/10 05:30:52;;;;;;;3.10;2.33;;;5.30;99.90;;;;;;4993992;28;20241;-76
2021/04/10 05:33:18;;;;;;;3.43;2.43;;;5.40;99.90;;;;;;4995562;28;20183;-76
2021/04/10 05:35:44;;;;;;;4.67;2.40;;;5.40;99.90;;;;;;4994820;28;20411;-76
2021/04/10 05:38:09;;;;;;;5.97;2.20;;;5.40;99.90;;;;;;4995296;28;20296;-76
2021/04/10 05:40:35;;;;;;;5.30;2.50;;;5.50;99.90;;;;;;4994941;28;20183;-76
2021/04/10 05:43:01;;;;;;;3.87;2.37;;;5.50;99.90;;;;;;4994859;28;20199;-76
2021/04/10 05:45:27;;;;;;;3.23;2.20;;;5.50;99.90;;;;;;4993160;28;20180;-76
2021/04/10 05:47:53;;;;;;;3.13;2.20;;;5.60;99.90;;;;;;4994031;28;20204;-76
2021/04/10 05:50:18;;;;;;;3.10;2.30;;;5.60;99.90;;;;;;4995081;28;20171;-76
2021/04/10 05:52:44;;;;;;;4.40;2.50;;;5.80;99.90;;;;;;4994561;28;20215;-76
2021/04/10 05:55:10;;;;;;;3.73;2.30;;;5.90;99.90;;;;;;4994667;28;20180;-76
2021/04/10 05:57:36;;;;;;;3.70;2.30;;;6.00;99.90;;;;;;4992651;28;20234;-76
2021/04/10 06:00:03;;;;;;;4.53;2.33;;;6.20;99.90;;;;;;4994391;28;20688;-76
2021/04/10 06:02:29;;;;;;;5.30;2.37;;;6.30;99.60;;;;;;5025795;28;20271;-76
2021/04/10 06:04:55;;;;;;;3.07;2.53;;;6.40;99.10;;;;;;4994308;28;20605;-76
2021/04/10 06:07:20;;;;;;;2.87;2.20;;;6.50;99.30;;;;;;4994131;28;20222;-76
2021/04/10 06:09:46;;;;;;;2.97;2.20;;;6.60;99.00;;;;;;4994497;28;20247;-76
2021/04/10 06:12:12;;;;;;;4.60;2.20;;;6.60;98.90;;;;;;4994268;28;20712;-76
2021/04/10 06:14:38;;;;;;;4.00;2.47;;;6.70;99.40;;;;;;4994236;28;20176;-76
2021/04/10 06:17:04;;;;;;;2.53;2.30;;;6.70;98.90;;;;;;4994579;28;20763;-76
2021/04/10 06:19:29;;;;;;;2.77;2.23;;;6.80;98.80;;;;;;4993041;28;20189;-76
2021/04/10 06:21:55;;;;;;;4.67;2.17;;;7.10;98.20;;;;;;4994347;28;20172;-76
2021/04/10 06:24:21;;;;;;;3.37;2.30;;;7.20;97.80;;;;;;4993905;28;20212;-76
2021/04/10 06:26:46;;;;;;;3.53;1.90;;;7.40;97.80;;;;;;4994482;28;20227;-76
2021/04/10 06:29:13;;;;;;;5.30;2.33;;;7.50;97.00;;;;;;4993983;28;20188;-76
2021/04/10 06:31:40;;;;;;;4.63;2.83;;;7.80;96.60;;;;;;4994057;28;20199;-76
2021/04/10 06:34:06;;;;;;;3.43;1.90;;;7.90;95.70;;;;;;4993951;28;20176;-77
2021/04/10 06:36:32;;;;;;;2.87;1.80;;;8.10;94.90;;;;;;4994013;28;20633;-76
2021/04/10 06:38:58;;;;;;;3.93;2.53;;;8.30;94.70;;;;;;4994497;28;20216;-76
2021/04/10 06:41:24;;;;;;;6.33;2.23;;;8.50;94.60;;;;;;4993081;28;20180;-76
2021/04/10 06:43:50;;;;;;;4.83;2.13;;;8.70;94.80;;;;;;4993862;28;20538;-77
2021/04/10 06:46:16;;;;;;;3.50;2.37;;;8.90;94.60;;;;;;4993857;28;20194;-76
2021/04/10 06:48:44;;;;;;;3.63;2.27;;;9.10;93.90;;;;;;4993712;28;20531;-76
2021/04/10 06:51:12;;;;;;;3.57;2.10;;;9.10;93.30;;;;;;4992649;28;20185;-77
2021/04/10 06:53:43;;;;;;;3.70;2.00;;;9.30;93.30;;;;;;4993998;28;20193;-76
2021/04/10 06:56:12;;;;;;;4.50;2.50;;;9.40;93.50;;;;;;4993835;28;20181;-76
2021/04/10 06:58:50;;;;;;;7.80;2.10;;;9.60;93.60;;;;;;4993705;28;20220;-77
2021/04/10 07:01:17;;;;;;;7.50;2.20;;;9.90;93.40;;;;;;4993027;28;20180;-76
2021/04/10 07:03:43;;;;;;;3.80;1.87;;;10.10;92.50;;;;;;4993660;28;20211;-76
2021/04/10 07:06:13;;;;;;;3.80;1.70;;;10.40;92.00;;;;;;4993490;28;20190;-76
2021/04/10 07:08:39;;;;;;;4.50;2.00;;;10.40;91.30;;;;;;4993736;28;20206;-76
2021/04/10 07:11:06;;;;;;;2.87;1.90;;;10.30;91.30;;;;;;4997332;28;20172;-76
2021/04/10 07:13:32;;;;;;;6.13;2.43;;;10.30;91.50;;;;;;4997654;28;20184;-76
2021/04/10 07:16:02;;;;;;;5.33;1.90;;;10.40;91.40;;;;;;4996158;28;20181;-76
2021/04/10 07:18:29;;;;;;;4.93;1.90;;;10.40;91.40;;;;;;4997470;28;20196;-76
2021/04/10 07:21:13;;;;;;;4.10;2.20;;;10.50;91.10;;;;;;4997746;28;20201;-76
2021/04/10 07:23:52;;;;;;;5.07;1.90;;;10.50;91.20;;;;;;4997902;28;20220;-76
2021/04/10 07:26:39;;;;;;;5.77;1.80;;;10.50;91.60;;;;;;4995928;28;20182;-76
2021/04/10 07:29:04;;;;;;;3.67;1.67;;;10.50;91.00;;;;;;4997175;28;20194;-76
2021/04/10 07:31:33;;;;;;;4.10;2.10;;;10.40;90.70;;;;;;4995979;28;20259;-75
2021/04/10 07:33:59;;;;;;;6.87;2.10;;;10.40;90.90;;;;;;4997075;28;20188;-76
2021/04/10 07:36:27;;;;;;;5.47;1.80;;;10.50;90.60;;;;;;4997320;28;20175;-75
2021/04/10 07:39:02;;;;;;;3.70;2.03;;;10.70;90.40;;;;;;4996492;28;20183;-77
2021/04/10 07:41:27;;;;;;;2.80;1.63;;;11.00;90.70;;;;;;4997452;28;20184;-76
2021/04/10 07:43:53;;;;;;;3.37;1.70;;;11.10;90.00;;;;;;4995799;28;20213;-76
2021/04/10 07:46:23;;;;;;;6.67;2.10;;;11.20;90.00;;;;;;4996895;28;20668;-76
2021/04/10 07:49:10;;;;;;;3.63;1.70;;;11.30;89.30;;;;;;4997247;28;20175;-76
2021/04/10 07:51:38;;;;;;;3.33;1.90;;;11.30;88.90;;;;;;4997272;28;20188;-76
2021/04/10 07:54:21;;;;;;;2.20;1.33;;;11.30;88.00;;;;;;4997161;28;20180;-75
2021/04/10 07:57:14;;;;;;;7.53;2.57;;;11.20;87.10;;;;;;4999765;28;20218;-75
2021/04/10 07:59:45;;;;;;;3.33;1.70;;;11.30;86.50;;;;;;5009262;28;20551;-76
2021/04/10 08:02:13;;;;;;;4.10;1.67;;;11.40;85.30;;;;;;5000936;28;20188;-77
2021/04/10 08:04:40;;;;;;;4.53;2.10;;;11.80;85.30;;;;;;5001162;28;20234;-76
2021/04/10 08:07:07;;;;;;;3.50;1.90;;;12.30;83.90;;;;;;4999754;28;20267;-76
2021/04/10 08:09:38;;;;;;;2.87;1.70;;;12.70;83.80;;;;;;5000121;28;20167;-76
2021/04/10 08:12:11;;;;;;;5.50;2.13;;;12.70;80.70;;;;;;4999998;28;20499;-76
2021/04/10 08:14:44;;;;;;;3.87;1.77;;;12.80;80.40;;;;;;4998257;28;20245;-76
2021/04/10 08:17:12;;;;;;;6.23;1.93;;;12.60;81.20;;;;;;4998093;28;20192;-76
2021/04/10 08:19:38;;;;;;;2.93;1.47;;;12.90;79.60;;;;;;4997866;28;20186;-77
2021/04/10 08:22:05;;;;;;;6.07;1.90;;;13.30;78.80;;;;;;4997330;28;20188;-76
2021/04/10 08:24:33;;;;;;;2.60;1.50;;;14.10;76.60;;;;;;4997961;28;20234;-77
2021/04/10 08:27:07;;;;;;;7.67;2.03;;;14.60;73.80;;;;;;4997016;28;20219;-77
2021/04/10 08:29:34;;;;;;;4.40;1.97;;;14.60;73.20;;;;;;4999153;28;20160;-78
2021/04/10 08:32:01;;;;;;;7.30;1.73;;;14.60;72.30;;;;;;4998752;28;20172;-77
2021/04/10 08:34:27;;;;;;;6.10;2.70;;;14.60;73.20;;;;;;4997090;28;20180;-77
2021/04/10 08:36:56;;;;;;;3.30;1.70;;;14.20;70.00;;;;;;4996070;28;20253;-77
2021/04/10 08:39:27;;;;;;;4.23;1.90;;;13.70;72.50;;;;;;4997135;28;20183;-77
2021/04/10 08:41:55;;;;;;;4.07;1.80;;;13.40;73.90;;;;;;4997607;28;20160;-77
2021/04/10 08:44:25;;;;;;;5.40;1.77;;;13.20;74.20;;;;;;4996714;28;20349;-77
2021/04/10 08:46:51;;;;;;;4.27;1.90;;;13.00;75.10;;;;;;4997218;28;20195;-77
2021/04/10 08:49:19;;;;;;;2.73;1.60;;;13.30;73.20;;;;;;4998102;28;20182;-77
2021/04/10 08:51:48;;;;;;;5.93;1.97;;;13.40;72.60;;;;;;4997713;28;20254;-78
2021/04/10 08:54:14;;;;;;;4.53;1.93;;;13.80;70.80;;;;;;4997250;28;20179;-77
2021/04/10 08:56:40;;;;;;;4.03;1.93;;;14.20;69.70;;;;;;4997165;28;20587;-77
2021/04/10 08:59:14;;;;;;;2.70;1.77;;;14.30;68.40;;;;;;4996883;28;20168;-76
2021/04/10 09:01:42;;;;;;;3.87;1.83;;;14.00;68.30;;;;;;4996503;28;20164;-76
2021/04/10 09:04:10;;;;;;;4.20;1.87;;;14.40;68.40;;;;;;4995995;28;20227;-77
2021/04/10 09:06:35;;;;;;;3.27;2.00;;;14.80;67.00;;;;;;4996646;28;20200;-77
2021/04/10 09:09:10;;;;;;;3.80;1.80;;;15.10;67.00;;;;;;4997279;28;20180;-77
2021/04/10 09:11:36;;;;;;;7.53;1.90;;;15.00;65.90;;;;;;4996031;28;20622;-76
2021/04/10 09:14:02;;;;;;;3.27;1.60;;;15.30;64.70;;;;;;4995789;28;20263;-77
2021/04/10 09:16:40;;;;;;;6.00;2.07;;;15.80;63.70;;;;;;4995850;28;20489;-77
2021/04/10 09:19:24;;;;;;;4.80;1.60;;;16.00;62.90;;;;;;4995082;28;20263;-78
2021/04/10 09:21:55;;;;;;;3.53;2.30;;;16.60;62.10;;;;;;5028036;28;20199;-78
2021/04/10 09:24:55;;;;;;;5.47;1.60;;;16.40;61.70;;;;;;4995873;28;20204;-77
2021/04/10 09:27:28;;;;;;;5.97;2.00;;;16.50;61.20;;;;;;4992399;28;20209;-78
2021/04/10 09:30:00;;;;;;;5.63;1.80;;;16.60;60.10;;;;;;4995422;28;20202;-77
2021/04/10 09:32:33;;;;;;;6.53;2.13;;;16.70;58.30;;;;;;4995205;28;20180;-77
2021/04/10 09:35:00;;;;;;;7.23;2.00;;;16.70;58.10;;;;;;4994066;28;20200;-77
2021/04/10 09:37:26;;;;;;;3.63;1.90;;;16.50;58.10;;;;;;4995849;28;20228;-77
2021/04/10 09:39:57;;;;;;;2.57;2.00;;;16.70;59.70;;;;;;4997411;28;20183;-78
2021/04/10 09:42:38;;;;;;;4.73;1.90;;;16.80;59.40;;;;;;4996494;28;20593;-77
2021/04/10 09:45:37;;;;;;;2.43;2.10;;;16.70;60.00;;;;;;4995733;28;20219;-78
2021/04/10 09:48:04;;;;;;;5.73;2.13;;;16.70;58.80;;;;;;4995769;28;20292;-78
2021/04/10 09:50:35;;;;;;;3.13;2.23;;;16.40;60.00;;;;;;4994518;28;20178;-77
2021/04/10 09:53:06;;;;;;;4.13;1.80;;;16.70;59.20;;;;;;4995410;28;20187;-77
2021/04/10 09:55:37;;;;;;;2.93;1.83;;;16.80;57.80;;;;;;4995299;28;20546;-77
2021/04/10 09:58:04;;;;;;;4.20;2.10;;;16.80;57.30;;;;;;4995413;28;20669;-77
2021/04/10 10:00:41;;;;;;;4.70;1.80;;;16.60;58.10;;;;;;4995560;28;20515;-77
2021/04/10 10:03:09;;;;;;;4.23;2.13;;;16.60;60.80;;;;;;4995209;28;20199;-76
2021/04/10 10:05:38;;;;;;;5.00;1.83;;;16.60;58.70;;;;;;4994990;28;20183;-77
2021/04/10 10:08:06;;;;;;;2.43;1.83;;;16.60;58.20;;;;;;4994916;28;20274;-77
2021/04/10 10:10:38;;;;;;;4.83;2.27;;;17.00;58.60;;;;;;4994862;28;20248;-77
2021/04/10 10:13:17;;;;;;;4.90;1.93;;;17.50;59.00;;;;;;4995176;28;20168;-77
2021/04/10 10:15:44;;;;;;;3.30;1.77;;;17.70;56.50;;;;;;4993204;28;20160;-77
2021/04/10 10:18:27;;;;;;;2.93;2.03;;;17.30;55.70;;;;;;4991450;28;20326;-77
2021/04/10 10:21:07;;;;;;;2.33;2.00;;;17.20;54.30;;;;;;4994600;28;20176;-77
2021/04/10 10:23:54;;;;;;;4.40;2.30;;;17.80;55.90;;;;;;4994688;28;20258;-77
2021/04/10 10:26:27;;;;;;;5.87;2.47;;;18.20;55.50;;;;;;4989860;28;20191;-76
2021/04/10 10:29:11;;;;;;;3.47;1.97;;;18.40;52.70;;;;;;4994571;28;20191;-77
2021/04/10 10:31:41;;;;;;;2.50;1.90;;;18.50;53.40;;;;;;4995497;28;20157;-75
2021/04/10 10:34:16;;;;;;;3.77;1.93;;;18.50;54.90;;;;;;4992969;28;20263;-76
2021/04/10 10:36:44;;;;;;;3.87;2.10;;;18.30;51.40;;;;;;4994394;28;20231;-76
2021/04/10 10:39:26;;;;;;;3.37;2.13;;;18.30;54.30;;;;;;4993938;28;20215;-76
2021/04/10 10:41:52;;;;;;;5.40;1.83;;;18.80;55.20;;;;;;4993994;28;20224;-76
2021/04/10 10:44:19;;;;;;;5.00;2.07;;;19.20;53.10;;;;;;4994155;28;20261;-76
2021/04/10 10:46:45;;;;;;;5.27;2.33;;;19.60;51.00;;;;;;4997651;28;20209;-76
2021/04/10 10:49:11;;;;;;;5.03;2.30;;;20.00;50.40;;;;;;4997861;28;20192;-76
2021/04/10 10:51:40;;;;;;;4.27;2.10;;;19.50;48.70;;;;;;4998232;28;20634;-77
2021/04/10 10:54:06;;;;;;;6.23;1.90;;;19.40;46.50;;;;;;4997643;28;20190;-77
2021/04/10 10:56:33;;;;;;;4.07;2.20;;;19.50;47.40;;;;;;4996749;28;20201;-77
2021/04/10 10:59:07;;;;;;;4.20;2.03;;;19.80;49.40;;;;;;4998158;28;20160;-77
2021/04/10 11:01:41;;;;;;;4.70;2.40;;;19.20;48.10;;;;;;4997765;28;20272;-77
2021/04/10 11:04:19;;;;;;;7.23;2.00;;;19.20;50.50;;;;;;4997733;28;20213;-77
2021/04/10 11:06:56;;;;;;;4.63;2.57;;;19.40;50.00;;;;;;5029486;28;20287;-77
2021/04/10 11:09:25;;;;;;;2.80;2.10;;;19.30;49.30;;;;;;4998023;28;20667;-77
2021/04/10 11:11:54;;;;;;;5.33;2.37;;;19.70;51.70;;;;;;4998605;28;20202;-77
2021/04/10 11:14:26;;;;;;;3.67;2.20;;;20.30;49.00;;;;;;4998532;28;20176;-77
2021/04/10 11:16:54;;;;;;;4.70;2.10;;;20.80;48.00;;;;;;4997632;28;20219;-75
2021/04/10 11:19:35;;;;;;;4.37;2.10;;;20.70;47.40;;;;;;4997048;28;20185;-76
2021/04/10 11:22:24;;;;;;;4.97;2.10;;;20.60;50.20;;;;;;4996621;28;20213;-77
2021/04/10 11:24:52;;;;;;;4.03;2.10;;;20.80;50.50;;;;;;4997533;28;20198;-75
2021/04/10 11:27:20;;;;;;;4.13;2.10;;;21.10;47.90;;;;;;4997836;28;20677;-75
2021/04/10 11:29:53;;;;;;;3.63;2.03;;;21.30;50.90;;;;;;4998211;28;20180;-76
2021/04/10 11:32:26;;;;;;;4.07;1.87;;;21.30;47.10;;;;;;5030273;28;20234;-76
2021/04/10 11:34:54;;;;;;;2.10;1.80;;;21.30;47.80;;;;;;4995613;28;20190;-76
2021/04/10 11:37:35;;;;;;;3.13;2.17;;;21.60;47.20;;;;;;4995493;28;20286;-76
2021/04/10 11:40:22;;;;;;;2.63;1.97;;;21.30;44.80;;;;;;4995377;28;20664;-77
2021/04/10 11:42:53;;;;;;;3.90;1.83;;;21.70;44.80;;;;;;4996804;28;20670;-76
2021/04/10 11:45:28;;;;;;;3.57;1.93;;;21.70;45.00;;;;;;4996700;28;20160;-77
2021/04/10 11:48:26;;;;;;;4.40;1.93;;;21.60;44.40;;;;;;4996331;28;20687;-76
2021/04/10 11:51:03;;;;;;;4.57;1.90;;;21.90;45.60;;;;;;4985117;28;20188;-76
2021/04/10 11:53:39;;;;;;;5.03;1.87;;;22.30;44.50;;;;;;4996322;28;20159;-76
2021/04/10 11:56:24;;;;;;;4.77;1.83;;;22.40;43.50;;;;;;4994573;28;20250;-76
2021/04/10 11:59:29;;;;;;;5.13;1.70;;;22.20;44.40;;;;;;4996511;28;20213;-76
2021/04/10 12:01:58;;;;;;;3.20;2.10;;;21.20;45.50;;;;;;4993074;28;20192;-76
2021/04/10 12:04:25;;;;;;;3.20;1.73;;;20.70;44.80;;;;;;5028030;28;20294;-77
2021/04/10 12:06:51;;;;;;;6.43;2.23;;;21.50;47.70;;;;;;4995006;28;20203;-76
2021/04/10 12:09:16;;;;;;;4.47;2.00;;;22.40;43.50;;;;;;4996333;28;20182;-76
2021/04/10 12:11:43;;;;;;;2.53;2.00;;;22.50;43.20;;;;;;4996306;28;20213;-76
2021/04/10 12:14:14;;;;;;;3.13;1.97;;;22.90;41.70;;;;;;5028238;28;20274;-76
2021/04/10 12:16:41;;;;;;;2.77;2.07;;;22.30;42.40;;;;;;4996135;28;20516;-76
2021/04/10 12:19:08;;;;;;;6.90;2.10;;;21.70;41.60;;;;;;4995053;28;20206;-76
2021/04/10 12:21:34;;;;;;;4.17;1.73;;;21.90;41.70;;;;;;4996444;28;20175;-76
2021/04/10 12:24:00;;;;;;;3.30;1.70;;;22.50;42.20;;;;;;4996273;28;20199;-75
2021/04/10 12:26:26;;;;;;;2.50;1.70;;;23.10;43.10;;;;;;4995740;28;20197;-75
2021/04/10 12:28:52;;;;;;;3.70;1.60;;;23.40;40.00;;;;;;4996666;28;20535;-76
2021/04/10 12:31:18;;;;;;;3.93;1.67;;;23.80;43.40;;;;;;4995959;28;20171;-75
2021/04/10 12:33:44;;;;;;;6.00;1.90;;;24.00;40.50;;;;;;4995269;28;20186;-76
2021/04/10 12:36:11;;;;;;;3.07;1.77;;;23.70;42.60;;;;;;4995900;28;20182;-75
2021/04/10 12:38:37;;;;;;;3.73;1.93;;;22.10;39.10;;;;;;4994733;28;20223;-76
2021/04/10 12:41:04;;;;;;;2.80;1.50;;;22.10;39.90;;;;;;4996156;28;20700;-76
2021/04/10 12:43:30;;;;;;;3.17;1.70;;;22.60;40.20;;;;;;4996127;28;20287;-76
2021/04/10 12:45:56;;;;;;;4.10;2.00;;;21.10;42.30;;;;;;4995826;28;20267;-75
2021/04/10 12:48:22;;;;;;;3.63;1.77;;;20.40;43.60;;;;;;4995617;28;20749;-75
2021/04/10 12:50:48;;;;;;;4.07;1.90;;;20.30;43.70;;;;;;4995811;28;20247;-75
2021/04/10 12:53:13;;;;;;;3.40;1.63;;;21.80;42.70;;;;;;4994059;28;20184;-74
2021/04/10 12:55:39;;;;;;;4.53;1.77;;;23.60;42.60;;;;;;4994240;28;20247;-76
2021/04/10 12:58:05;;;;;;;3.20;2.03;;;23.00;39.40;;;;;;4995549;28;20620;-76
2021/04/10 13:00:30;;;;;;;5.47;1.77;;;23.60;42.30;;;;;;4995460;28;20186;-76
2021/04/10 13:02:56;;;;;;;4.13;1.60;;;23.60;39.70;;;;;;4995606;28;20201;-76